KGOK

Details ICAO KGOK
Name GUTHRIE MUNI
Region United States
Timezone America/Chicago (UTC-6.0)
Plans Departing 2
Arriving 2
Stats Elevation 1,068 ft / 326 m (AMSL)
Location 35.849806° -97.415607°
Runways 1
Magnetic Variation 3.658° E
Sunrise 2017-12-13 13:32:48 UTC / 2017-12-13 07:32:48 Local
Sunset 2017-12-13 23:18:01 UTC / 2017-12-13 17:18:01 Local
Advertisement - Login to hide

Runways

ID Width Length Bearing (true) Bearing (mag) Surface Threshold Offset Overrun Length
16 75 ft / 23 m 4,110 ft / 1,253 m 164.95° 161.29° Concrete 0 ft / 0 m 0 ft / 0 m
34 75 ft / 23 m 4,110 ft / 1,253 m 344.95° 341.29° Concrete 0 ft / 0 m 0 ft / 0 m

Map

Weather


0- 5 10 15 20 25 30 35+ Temperature / ° C

Clouds and Precipitation
Forecast for 2017-12-13 18:00 UTC. Updated 12 minutes ago

Ground ~20,000 ft ~40,000 ft Winds

METAR

KGOK 131453Z AUTO 24007KT 10SM CLR 07/M06 A2994 RMK AO2 SLP144 T00671056 53016

TAF

Not found

Frequencies

Recorded 133.97 MHz ASOS
Approach 124.20 MHz OKE CITY APP/DEP
Unicom 122.80 MHz CTAF/UNICOM
Warning: Do not use this data for real-world aviation or navigation. No guarantee of current accuracy is given.